Flight Track Log - Related Links

Times and Time Zones

All times are in EDT time to prevent confusion due to time zone crossing. See the SWA525 flight status page for this flight to view local times or setup timezone preferences in your user account.

Time Position Orientation Groundspeed Altitude Reporting Facility
EDT Latitude Longitude Course Direction KTS MPH feet Rate Location/Type
Tue 09:18:57 PM 28.4333 -81.3000 360° North 163 188 600  Level Orlando TRACON
Tue 09:19:21 PM 28.4500 -81.3000 360° North 187 215 1,600 2,357 Climbing Orlando TRACON
Tue 09:20:21 PM 28.5167 -81.3167 348° North 248 285 3,900 2,650 Climbing Orlando TRACON
Tue 09:21:21 PM 28.5833 -81.3500 336° Northwest 276 318 6,900 3,050 Climbing Orlando TRACON
Tue 09:22:21 PM 28.6000 -81.4167 286° West 276 318 10,000 2,246 Climbing Orlando TRACON
Tue 09:24:28 PM 28.5925 -81.6372 268° West 334 384 13,900 2,246 Climbing Jacksonville Center
Tue 09:25:28 PM 28.6019 -81.7553 275° West 351 404 17,000 2,050 Climbing Jacksonville Center
Tue 09:26:28 PM 28.6589 -81.8278 312° West 341 392 18,000 1,750 Climbing Jacksonville Center
Tue 09:27:28 PM 28.7389 -81.9264 313° West 365 420 20,500 2,250 Climbing Jacksonville Center
Tue 09:28:28 PM 28.8106 -82.0206 311° West 388 447 22,500 1,650 Climbing Jacksonville Center
Tue 09:29:28 PM 28.8864 -82.1194 311° West 401 461 23,800 750 Climbing Jacksonville Center
Tue 09:30:28 PM 28.9619 -82.2186 311° West 411 473 24,000 50 Climbing Jacksonville Center
Tue 09:31:28 PM 29.0439 -82.3250 311° West 427 491 23,900  Descending Jacksonville Center
Tue 09:32:28 PM 29.1258 -82.4314 311° West 437 503 24,000 50 Climbing Jacksonville Center
Tue 09:33:28 PM 29.2075 -82.5358 312° West 442 509 24,000  Level Jacksonville Center
Tue 09:34:28 PM 29.2872 -82.6378 312° West 442 509 24,000  Level Jacksonville Center
Tue 09:35:28 PM 29.3644 -82.7425 310° West 437 503 24,000  Level Jacksonville Center
Tue 09:36:28 PM 29.4439 -82.8450 312° West 437 503 24,000  Level Jacksonville Center
Tue 09:37:28 PM 29.5336 -82.9642 311° West 434 499 24,000  Level Jacksonville Center
Tue 09:38:28 PM 29.6172 -83.0644 314° West 440 506 24,000  Level Jacksonville Center
Tue 09:39:28 PM 29.7131 -83.1461 324° Northwest 435 501 24,000  Level Jacksonville Center
Tue 09:40:28 PM 29.8172 -83.2300 325° Northwest 449 517 24,000  Level Jacksonville Center
Tue 09:41:28 PM 29.9047 -83.3022 324° Northwest 441 507 24,000  Level Jacksonville Center
Tue 09:42:28 PM 30.0067 -83.3842 325° Northwest 446 513 24,000  Level Jacksonville Center
Tue 09:43:28 PM 30.1150 -83.4714 325° Northwest 446 513 24,000  Level Jacksonville Center
Tue 09:44:28 PM 30.2147 -83.5561 324° Northwest 446 513 24,000  Level Jacksonville Center
Tue 09:45:28 PM 30.3144 -83.6386 324° Northwest 446 513 24,000  Level Jacksonville Center
Tue 09:46:28 PM 30.4183 -83.7261 324° Northwest 446 513 24,000  Level Jacksonville Center
Tue 09:47:28 PM 30.5222 -83.8089 326° Northwest 446 513 24,000  Level Jacksonville Center
Tue 09:48:28 PM 30.6217 -83.8967 323° Northwest 446 513 24,000  Level Jacksonville Center
Tue 09:49:28 PM 30.7275 -83.9850 324° Northwest 456 525 24,000  Level Jacksonville Center
Tue 09:50:28 PM 30.8289 -84.0708 324° Northwest 456 525 24,000  Level Jacksonville Center
Tue 09:51:28 PM 30.9325 -84.1569 325° Northwest 456 525 24,000  Level Jacksonville Center
Tue 09:52:28 PM 31.0339 -84.2431 324° Northwest 456 525 24,000  Level Jacksonville Center
Tue 09:53:28 PM 31.1353 -84.3294 324° Northwest 456 525 24,000  Level Jacksonville Center
Tue 09:55:55 PM 31.3761 -84.5350 324° Northwest 448 516 24,000  Level Atlanta Center
Tue 09:56:55 PM 31.4886 -84.6281 325° Northwest 455 524 24,000  Level Atlanta Center
Tue 09:57:55 PM 31.5903 -84.7192 323° Northwest 460 529 24,000  Level Atlanta Center
Tue 09:58:55 PM 31.6919 -84.8053 324° Northwest 460 529 24,000  Level Atlanta Center
Tue 09:59:55 PM 31.7958 -84.8942 324° Northwest 455 524 24,000  Level Atlanta Center
Tue 10:00:55 PM 31.8975 -84.9831 323° Northwest 455 524 24,000  Level Atlanta Center
Tue 10:01:55 PM 32.0033 -85.0700 325° Northwest 455 524 24,000  Level Atlanta Center
Tue 10:02:55 PM 32.1047 -85.1544 325° Northwest 455 524 24,000  Level Atlanta Center
Tue 10:03:55 PM 32.2042 -85.2442 323° Northwest 449 517 24,000  Level Atlanta Center
Tue 10:04:55 PM 32.3056 -85.3314 324° Northwest 449 517 24,000  Level Atlanta Center
Tue 10:05:55 PM 32.4067 -85.4214 323° Northwest 455 524 24,000  Level Atlanta Center
Tue 10:06:55 PM 32.5122 -85.5119 324° Northwest 455 524 24,000  Level Atlanta Center
Tue 10:07:55 PM 32.6092 -85.5997 323° Northwest 456 525 24,000  Level Atlanta Center
Tue 10:08:55 PM 32.7022 -85.6803 324° Northwest 456 525 24,000  Level Atlanta Center
Tue 10:09:55 PM 32.8011 -85.7664 324° Northwest 456 525 24,000  Level Atlanta Center
Tue 10:10:55 PM 32.9061 -85.8622 323° Northwest 461 531 24,000  Level Atlanta Center
Tue 10:12:00 PM 33.0073 -85.9457 325° Northwest  Level FlightAware Approximate
Tue 10:12:55 PM 33.1100 -86.0425 325° Northwest 461 531 24,000  Level Atlanta Center
Tue 10:13:55 PM 33.2108 -86.1344 323° Northwest 455 524 24,000  Level Atlanta Center
Tue 10:14:55 PM 33.3136 -86.2264 323° Northwest 455 524 24,000  Level Atlanta Center
Tue 10:15:55 PM 33.4164 -86.3161 324° Northwest 455 524 24,000  Level Atlanta Center
Tue 10:17:00 PM 33.5159 -86.4049 323° Northwest  Level FlightAware Approximate
Tue 10:17:55 PM 33.6297 -86.5086 323° Northwest 455 524 24,000  Level Atlanta Center
Tue 10:18:55 PM 33.7386 -86.5842 330° Northwest 455 524 24,000  Level Atlanta Center
Tue 10:19:55 PM 33.8500 -86.6600 331° Northwest 455 524 24,000  Level Atlanta Center
Tue 10:20:55 PM 33.9589 -86.7386 329° Northwest 455 524 24,000  Level Atlanta Center
Tue 10:23:21 PM 34.2169 -86.9261 329° Northwest 477 549 24,000  Level Memphis Center
Tue 10:24:21 PM 34.3278 -87.0047 330° Northwest 471 542 24,000  Level Memphis Center
Tue 10:25:21 PM 34.4361 -87.0833 329° Northwest 456 525 24,000  Level Memphis Center
Tue 10:26:21 PM 34.5411 -87.1803 323° Northwest 461 531 24,000  Level Memphis Center
Tue 10:27:21 PM 34.6411 -87.2675 324° Northwest 455 524 24,000  Level Memphis Center
Tue 10:28:21 PM 34.7564 -87.3642 325° Northwest 455 524 24,000  Level Memphis Center
Tue 10:29:21 PM 34.8628 -87.4542 325° Northwest 455 524 24,000  Level Memphis Center
Tue 10:30:21 PM 34.9650 -87.5444 324° Northwest 460 529 24,000  Level Memphis Center
Tue 10:31:21 PM 35.0714 -87.6372 324° Northwest 460 529 24,000  Level Memphis Center
Tue 10:32:21 PM 35.1669 -87.7153 326° Northwest 467 537 24,000  Level Memphis Center
Tue 10:33:21 PM 35.2731 -87.8086 324° Northwest 467 537 24,000  Level Memphis Center
Tue 10:34:21 PM 35.3794 -87.9022 324° Northwest 467 537 24,000  Level Memphis Center
Tue 10:35:21 PM 35.4919 -88.0033 324° Northwest 467 537 24,000  Level Memphis Center
Tue 10:36:21 PM 35.5850 -88.0850 324° Northwest 472 543 24,000  Level Memphis Center
Tue 10:37:21 PM 35.6889 -88.1717 326° Northwest 457 526 24,000  Level Memphis Center
Tue 10:38:21 PM 35.7947 -88.2608 326° Northwest 457 526 24,000  Level Memphis Center
Tue 10:39:21 PM 35.8942 -88.3558 322° Northwest 457 526 24,000  Level Memphis Center
Tue 10:40:21 PM 35.9978 -88.4456 325° Northwest 457 526 24,000  Level Memphis Center
Tue 10:41:21 PM 36.0994 -88.5383 324° Northwest 457 526 24,000  Level Memphis Center
Tue 10:42:21 PM 36.2008 -88.6286 324° Northwest 452 520 24,000  Level Memphis Center
Tue 10:43:21 PM 36.3042 -88.7217 324° Northwest 452 520 24,000  Level Memphis Center
Tue 10:44:21 PM 36.4075 -88.8125 325° Northwest 458 527 24,000  Level Memphis Center
Tue 10:45:21 PM 36.5086 -88.9061 323° Northwest 458 527 24,000  Level Memphis Center
Tue 10:46:21 PM 36.6097 -89.0025 323° Northwest 458 527 24,000  Level Memphis Center
Tue 10:47:21 PM 36.7108 -89.0939 324° Northwest 458 527 24,000  Level Memphis Center
Tue 10:48:21 PM 36.8117 -89.1881 323° Northwest 458 527 24,000  Level Memphis Center
Tue 10:49:21 PM 36.9147 -89.2828 324° Northwest 458 527 24,000  Level Memphis Center
Tue 10:50:21 PM 37.0156 -89.3775 323° Northwest 458 527 24,000  Level Memphis Center
Tue 10:52:27 PM 37.2331 -89.5772 324° Northwest 452 520 24,000  Level Kansas City Center
Tue 10:53:28 PM 37.3483 -89.6403 337° Northwest 449 517 24,000  Level Kansas City Center
Tue 10:54:29 PM 37.4644 -89.7031 337° Northwest 451 519 24,000  Level Kansas City Center
Tue 10:55:30 PM 37.5856 -89.7700 336° Northwest 454 522 24,000  Level Kansas City Center
Tue 10:56:31 PM 37.7006 -89.8322 337° Northwest 451 519 24,000  Level Kansas City Center
Tue 10:57:33 PM 37.8156 -89.8961 336° Northwest 451 519 24,000 -537 Level Kansas City Center
Tue 10:58:34 PM 37.9383 -89.9617 337° Northwest 449 517 22,900 -1,623 Descending Kansas City Center
Tue 10:59:35 PM 38.0403 -90.0181 336° Northwest 406 467 20,700 -2,262 Descending Kansas City Center
Tue 11:00:36 PM 38.1383 -90.0736 336° Northwest 388 447 18,300 -2,479 Descending Kansas City Center
Tue 11:01:36 PM 38.2403 -90.1306 336° Northwest 374 430 15,700 -1,934 Descending Kansas City Center
Tue 11:02:37 PM 38.3300 -90.1811 336° Northwest 356 410 14,400 -1,869 Descending Kansas City Center
Tue 11:03:38 PM 38.4175 -90.2311 336° Northwest 349 402 11,900 -1,967 Descending Kansas City Center
Tue 11:04:39 PM 38.5044 -90.2847 334° Northwest 348 400 10,400 -1,721 Descending Kansas City Center
Tue 11:05:40 PM 38.5775 -90.3319 333° Northwest 310 357 8,400 -1,770 Descending Kansas City Center
Tue 11:06:41 PM 38.6328 -90.3853 323° Northwest 293 337 6,800 -1,672 Descending Kansas City Center
Tue 11:07:42 PM 38.6936 -90.4514 320° Northwest 277 319 5,000 -1,672 Descending Kansas City Center
Tue 11:08:43 PM 38.7536 -90.5122 322° Northwest 274 315 3,400 -1,082 Descending Kansas City Center
Tue 11:09:44 PM 38.8044 -90.4806 26° Northeast 232 267 2,800 -836 Descending Kansas City Center
Tue 11:10:45 PM 38.7839 -90.4397 123° Southeast 168 193 1,700 -885 Descending Kansas City Center
Tue 11:11:46 PM 38.7647 -90.4000 122° Southeast 143 165 1,000 -590 Descending Kansas City Center
Tue 11:12:47 PM 38.7417 -90.3531 122° Southeast 138 159 500 -492 Descending Kansas City Center

Login

Don't have an account? Register now (free) for customized features, flight alerts, and more!